Página principal
METAR-TAF:

METAR-TAF

Aeroportos :

La Palma, Espanha

latitude: 28-37N, longitude: 017-45W, altura: 29 m

Observação actual do tempo

O boletim foi feito há 25 minutos, às 03:00 UTC
Vento 10 kt de norte
Temperatura 22°C
Humidade 83%
Pressão 1018 hPa
Visibilidade 10 km ou mais

METAR: GCLA 240300Z AUTO 36010KT 9999 NCD 22/19 Q1018

Hora: 04:25 (03:25 UTC)

Previsão

O boletim foi feito há 1 hora e 25 minutos, às 02:00 UTC
Previsão válida de 24 às 03 UTC a 25 às 03 UTC
Vento 12 kt de nor-nordeste
Visibilidade 10 km ou mais
Nuvens fragmentadasa uma altura de 2500 ft
Probabilidade 30% :
Temporariamente
de 24 às 03 UTC a 24 às 08 UTC
Vento 8 kt de nor-noroeste

TAF: GCLA 240200Z 2403/2503 03012KT 9999 BKN025 TX29/2415Z TN25/2405Z PROB30 TEMPO 2403/2408 33008KT

Observações e previsões do tempo de mais de 4000 aeroportos (mensagens METAR e TAF).

As estações disponíveis são os pontos amarelos e vermelhos sobre o mapa.

Mova o rato sobre o mapa para ver o nome da estação.

Depois clique no ponto para visualizar as observações e previsões meteorológicas.

Para alterar o mapa : clique nos botões verdes com uma cruz preta para aumentar o zoom; no botão verde com uma pitada de zoom; ou nas setas verdes para mapas adjacentes.


METAR-TAF: